Time;durP1;ratioP1;P1;durP2;ratioP2;P2;SDS_P1;SDS_P2;PMS_P1;PMS_P2;Temp;Humidity;BMP_temperature;BMP_pressure;BME280_temperature;BME280_humidity;BME280_pressure;Samples;Min_cycle;Max_cycle;Signal;HPM_P1;HPM_P2
2022/04/08 00:02:03;;;;;;;72.07;49.15;;;15.70;54.20;;;;;;4994358;28;95624;-35
2022/04/08 00:04:30;;;;;;;70.10;49.13;;;15.70;54.10;;;;;;4994048;28;95619;-34
2022/04/08 00:06:56;;;;;;;71.32;48.95;;;15.70;54.20;;;;;;4992776;28;96629;-39
2022/04/08 00:09:22;;;;;;;71.18;48.85;;;15.70;54.10;;;;;;4986200;28;94016;-35
2022/04/08 00:11:48;;;;;;;69.65;48.80;;;15.70;54.10;;;;;;4991081;28;95213;-36
2022/04/08 00:14:13;;;;;;;70.50;48.95;;;15.60;54.00;;;;;;4985225;28;94898;-33
2022/04/08 00:16:39;;;;;;;70.50;48.80;;;15.70;54.20;;;;;;4999814;28;95790;-37
2022/04/08 00:19:05;;;;;;;70.38;48.70;;;15.70;54.20;;;;;;4991524;28;95095;-47
2022/04/08 00:21:31;;;;;;;71.47;49.13;;;15.70;54.20;;;;;;4995187;28;96731;-35
2022/04/08 00:23:56;;;;;;;71.05;48.83;;;15.60;54.10;;;;;;4990176;28;95062;-40
2022/04/08 00:26:22;;;;;;;71.78;49.08;;;15.70;54.10;;;;;;4999135;28;95013;-38
2022/04/08 00:28:47;;;;;;;69.72;48.55;;;15.60;54.20;;;;;;4989688;28;95231;-38
2022/04/08 00:31:13;;;;;;;71.47;48.67;;;15.60;54.10;;;;;;4994277;28;95804;-39
2022/04/08 00:33:39;;;;;;;70.88;49.15;;;15.60;54.10;;;;;;5000843;28;94973;-38
2022/04/08 00:36:04;;;;;;;70.10;48.63;;;15.60;54.10;;;;;;4995983;28;96314;-36
2022/04/08 00:38:30;;;;;;;72.90;49.25;;;15.60;54.10;;;;;;4995985;28;94996;-38
2022/04/08 00:40:56;;;;;;;70.28;48.78;;;15.70;54.20;;;;;;4998784;28;98963;-38
2022/04/08 00:43:38;;;;;;;72.40;49.17;;;15.60;54.10;;;;;;4999491;28;95349;-36
2022/04/08 00:46:11;;;;;;;70.22;49.03;;;15.70;54.10;;;;;;4996016;28;94812;-39
2022/04/08 00:48:37;;;;;;;71.68;48.90;;;15.60;54.10;;;;;;4994629;28;94884;-36
2022/04/08 00:51:05;;;;;;;70.28;48.92;;;15.60;54.10;;;;;;4994967;28;94873;-39
2022/04/08 00:53:32;;;;;;;70.50;48.90;;;15.60;54.10;;;;;;4998857;28;95490;-40
2022/04/08 00:55:59;;;;;;;69.68;48.95;;;15.60;54.80;;;;;;5001471;27;94931;-34
2022/04/08 00:58:26;;;;;;;71.18;49.25;;;15.60;54.10;;;;;;5004264;28;94073;-41
2022/04/08 01:00:51;;;;;;;69.07;48.65;;;15.60;54.10;;;;;;5000677;28;95699;-37
2022/04/08 01:03:17;;;;;;;70.70;48.67;;;15.60;54.10;;;;;;5000072;28;97773;-41
2022/04/08 01:05:43;;;;;;;70.25;48.88;;;15.60;54.20;;;;;;4997334;28;96004;-37
2022/04/08 01:08:10;;;;;;;70.05;48.60;;;15.60;54.10;;;;;;4994919;28;95669;-41
2022/04/08 01:10:37;;;;;;;69.90;48.67;;;15.60;54.10;;;;;;4997421;28;95780;-38
2022/04/08 01:13:03;;;;;;;72.40;49.03;;;15.60;54.10;;;;;;4993566;28;95301;-39
2022/04/08 01:15:28;;;;;;;71.38;49.10;;;15.60;54.20;;;;;;4994719;28;95040;-38
2022/04/08 01:17:54;;;;;;;69.97;48.90;;;15.60;54.20;;;;;;4996294;28;97384;-38
2022/04/08 01:20:20;;;;;;;70.72;48.95;;;15.60;54.20;;;;;;4996453;27;95127;-38
2022/04/08 01:22:45;;;;;;;71.15;48.63;;;15.60;54.20;;;;;;4998535;28;95289;-36
2022/04/08 01:25:13;;;;;;;70.38;48.72;;;15.60;54.20;;;;;;4997884;28;95670;-38
2022/04/08 01:27:39;;;;;;;70.68;49.10;;;15.60;54.20;;;;;;4993184;28;95156;-34
2022/04/08 01:30:07;;;;;;;70.68;49.03;;;15.50;54.20;;;;;;4991699;28;96222;-39
2022/04/08 01:32:33;;;;;;;71.35;49.25;;;15.50;54.30;;;;;;4997625;28;96440;-37
2022/04/08 01:34:58;;;;;;;69.93;48.88;;;15.50;54.20;;;;;;4994833;28;95217;-36
2022/04/08 01:37:24;;;;;;;71.00;49.05;;;15.60;54.10;;;;;;5000774;28;94821;-35
2022/04/08 01:39:50;;;;;;;70.80;48.75;;;15.50;54.30;;;;;;4998434;28;97271;-38
2022/04/08 01:42:21;;;;;;;69.75;48.92;;;15.50;54.20;;;;;;4993698;28;95481;-34
2022/04/08 01:44:47;;;;;;;;;;;15.50;54.20;;;;;;4990869;28;95013;-39
2022/04/08 01:47:13;;;;;;;69.63;48.58;;;15.60;54.30;;;;;;5001985;28;94130;-37
2022/04/08 01:49:39;;;;;;;71.10;48.75;;;15.50;54.30;;;;;;4986914;28;94990;-35
2022/04/08 01:52:05;;;;;;;69.53;48.65;;;15.50;54.20;;;;;;4993174;28;94531;-38
2022/04/08 01:54:31;;;;;;;70.25;48.83;;;15.50;54.20;;;;;;4995075;28;95932;-37
2022/04/08 01:56:56;;;;;;;69.95;49.10;;;15.50;54.80;;;;;;4995051;28;94997;-46
2022/04/08 01:59:22;;;;;;;70.30;48.85;;;15.50;54.30;;;;;;4994967;28;96586;-41
2022/04/08 02:01:48;;;;;;;70.38;48.90;;;15.50;54.30;;;;;;4986313;28;95017;-40
2022/04/08 02:04:13;;;;;;;70.75;48.95;;;15.50;54.30;;;;;;4996366;28;94764;-39
2022/04/08 02:06:40;;;;;;;69.28;48.72;;;15.50;54.30;;;;;;4993981;28;94953;-38
2022/04/08 02:09:07;;;;;;;69.25;48.45;;;15.50;54.30;;;;;;4987521;28;94950;-39
2022/04/08 02:11:34;;;;;;;69.60;48.55;;;15.50;54.20;;;;;;4994896;28;93955;-35
2022/04/08 02:14:00;;;;;;;71.40;48.83;;;15.50;54.30;;;;;;4992741;28;94939;-38
2022/04/08 02:16:25;;;;;;;69.55;48.90;;;15.50;54.30;;;;;;4989566;28;94750;-41
2022/04/08 02:18:51;;;;;;;71.47;48.97;;;15.50;54.30;;;;;;4992756;28;96461;-39
2022/04/08 02:21:19;;;;;;;70.55;48.75;;;15.50;54.30;;;;;;4980546;28;98369;-40
2022/04/08 02:23:46;;;;;;;70.43;48.95;;;15.50;54.30;;;;;;4995492;28;100721;-37
2022/04/08 02:26:13;;;;;;;69.28;48.78;;;15.50;54.30;;;;;;4991281;28;94886;-40
2022/04/08 02:28:39;;;;;;;70.68;48.72;;;15.50;54.30;;;;;;4990579;28;95924;-37
2022/04/08 02:31:05;;;;;;;69.43;48.67;;;15.50;54.20;;;;;;4992997;28;95013;-41
2022/04/08 02:33:31;;;;;;;69.28;48.63;;;15.40;54.30;;;;;;4995875;28;95152;-35
2022/04/08 02:35:57;;;;;;;68.90;48.40;;;15.40;54.20;;;;;;4987027;28;94648;-38
2022/04/08 02:38:22;;;;;;;69.05;48.47;;;15.50;54.30;;;;;;4993791;28;95355;-38
2022/04/08 02:40:48;;;;;;;72.03;48.65;;;15.50;54.30;;;;;;4986113;28;95108;-39
2022/04/08 02:43:14;;;;;;;70.47;48.75;;;15.40;54.30;;;;;;4992917;28;95985;-36
2022/04/08 02:45:39;;;;;;;71.60;48.55;;;15.40;54.30;;;;;;4988348;28;95082;-41
2022/04/08 02:48:05;;;;;;;69.63;48.65;;;15.40;54.30;;;;;;4993870;28;95850;-38
2022/04/08 02:50:31;;;;;;;69.65;48.83;;;15.40;54.30;;;;;;4989843;28;95220;-40
2022/04/08 02:52:57;;;;;;;69.38;48.63;;;15.40;54.30;;;;;;4988414;27;94715;-38
2022/04/08 02:55:22;;;;;;;69.53;48.63;;;15.40;54.30;;;;;;4993242;28;94987;-40
2022/04/08 02:57:50;;;;;;;69.00;48.45;;;15.40;54.30;;;;;;4986127;28;96192;-37
2022/04/08 03:00:17;;;;;;;68.97;48.65;;;15.40;54.20;;;;;;4994610;28;94966;-35
2022/04/08 03:02:44;;;;;;;70.05;48.80;;;15.40;54.30;;;;;;4986587;28;94661;-38
2022/04/08 03:05:09;;;;;;;69.32;48.72;;;15.40;54.30;;;;;;4988131;28;94788;-38
2022/04/08 03:07:35;;;;;;;69.32;48.80;;;15.40;54.30;;;;;;4993098;28;95866;-38
2022/04/08 03:10:03;;;;;;;68.78;48.45;;;15.40;54.30;;;;;;4994203;28;95000;-37
2022/04/08 03:12:29;;;;;;;70.25;48.75;;;15.30;54.30;;;;;;4992068;28;95113;-38
2022/04/08 03:14:55;;;;;;;70.35;48.72;;;15.40;54.40;;;;;;4992481;28;94805;-37
2022/04/08 03:17:20;;;;;;;69.78;48.75;;;15.40;54.30;;;;;;4990066;28;95420;-40
2022/04/08 03:19:46;;;;;;;69.43;48.50;;;15.40;54.40;;;;;;4990628;28;95463;-37
2022/04/08 03:22:12;;;;;;;69.25;48.75;;;15.40;54.40;;;;;;4994330;28;94784;-38
2022/04/08 03:24:37;;;;;;;69.20;48.55;;;15.40;54.40;;;;;;4994743;28;94479;-40
2022/04/08 03:27:03;;;;;;;68.97;48.40;;;15.40;54.40;;;;;;4988368;28;94722;-34
2022/04/08 03:29:29;;;;;;;69.13;48.47;;;15.30;54.30;;;;;;4993764;28;94993;-38
2022/04/08 03:31:54;;;;;;;70.40;48.60;;;15.30;54.30;;;;;;4987352;28;96030;-39
2022/04/08 03:34:20;;;;;;;69.45;48.72;;;15.30;54.30;;;;;;4998939;28;94748;-35
2022/04/08 03:36:47;;;;;;;69.63;48.40;;;15.30;54.40;;;;;;4989403;28;94785;-41
2022/04/08 03:39:13;;;;;;;68.55;48.55;;;15.30;54.30;;;;;;4996167;28;95713;-40
2022/04/08 03:41:40;;;;;;;69.10;48.50;;;15.30;54.30;;;;;;4988290;28;95303;-39
2022/04/08 03:44:06;;;;;;;70.32;48.60;;;15.30;54.30;;;;;;4992016;28;94779;-44
2022/04/08 03:46:32;;;;;;;70.30;48.50;;;15.30;54.30;;;;;;4984611;28;95168;-40
2022/04/08 03:48:58;;;;;;;69.30;48.63;;;15.30;54.30;;;;;;4989299;28;95587;-47
2022/04/08 03:51:24;;;;;;;69.50;48.47;;;15.30;54.40;;;;;;4989114;27;95071;-37
2022/04/08 03:53:50;;;;;;;68.78;48.42;;;15.30;54.40;;;;;;4991934;28;95188;-36
2022/04/08 03:56:15;;;;;;;68.93;48.47;;;15.30;54.40;;;;;;4984678;28;96170;-38
2022/04/08 03:58:41;;;;;;;69.13;48.47;;;15.30;54.40;;;;;;4984624;28;96202;-39
2022/04/08 04:01:06;;;;;;;69.05;48.42;;;15.30;54.40;;;;;;4986417;28;94995;-41
2022/04/08 04:03:32;;;;;;;68.85;48.33;;;15.30;54.40;;;;;;4988376;28;95106;-38
2022/04/08 04:05:58;;;;;;;68.78;48.47;;;15.30;54.30;;;;;;4991711;28;95731;-35
2022/04/08 04:08:24;;;;;;;68.28;48.45;;;15.30;54.40;;;;;;4990958;28;95403;-37
2022/04/08 04:10:49;;;;;;;68.57;48.45;;;15.30;54.40;;;;;;4990986;28;95246;-35
2022/04/08 04:13:15;;;;;;;69.20;48.42;;;15.30;54.40;;;;;;4994604;28;94616;-39
2022/04/08 04:15:41;;;;;;;67.97;48.15;;;15.30;54.40;;;;;;4996491;28;96532;-39
2022/04/08 04:18:08;;;;;;;69.07;48.47;;;15.30;54.30;;;;;;4991122;28;95494;-39
2022/04/08 04:20:34;;;;;;;68.50;48.30;;;15.20;54.30;;;;;;4990779;28;95516;-39
2022/04/08 04:22:59;;;;;;;69.63;48.55;;;15.20;54.40;;;;;;4987665;28;95378;-38
2022/04/08 04:25:26;;;;;;;69.50;48.45;;;15.20;54.40;;;;;;4997843;28;96510;-39
2022/04/08 04:27:51;;;;;;;68.78;48.33;;;15.20;54.30;;;;;;4990400;28;95232;-37
2022/04/08 04:30:17;;;;;;;68.47;48.55;;;15.20;54.40;;;;;;4995154;28;94853;-37
2022/04/08 04:32:43;;;;;;;68.40;48.17;;;15.20;54.40;;;;;;4987621;28;94599;-40
2022/04/08 04:35:08;;;;;;;68.28;48.25;;;15.20;54.30;;;;;;4992750;28;95397;-37
2022/04/08 04:37:35;;;;;;;69.18;48.85;;;15.20;54.30;;;;;;4987652;28;94965;-39
2022/04/08 04:40:01;;;;;;;69.22;48.88;;;15.20;54.30;;;;;;4989679;28;95054;-36
2022/04/08 04:42:28;;;;;;;70.50;49.28;;;15.20;54.50;;;;;;4991655;28;95058;-38
2022/04/08 04:44:54;;;;;;;69.00;49.03;;;15.20;54.40;;;;;;4988350;28;95965;-35
2022/04/08 04:47:20;;;;;;;69.38;48.92;;;15.20;54.40;;;;;;4988086;28;95896;-37
2022/04/08 04:49:46;;;;;;;68.38;48.53;;;15.20;54.40;;;;;;4983342;28;95051;-39
2022/04/08 04:52:12;;;;;;;70.10;48.83;;;15.20;54.40;;;;;;4991989;28;95067;-36
2022/04/08 04:54:37;;;;;;;68.82;48.53;;;15.20;54.40;;;;;;4988674;28;95546;-37
2022/04/08 04:57:04;;;;;;;69.28;48.78;;;15.20;54.40;;;;;;5002636;28;95584;-39
2022/04/08 04:59:29;;;;;;;68.20;48.47;;;15.20;54.40;;;;;;4988636;28;95327;-37
2022/04/08 05:01:55;;;;;;;70.00;48.80;;;15.20;55.00;;;;;;4997632;28;93993;-39
2022/04/08 05:04:20;;;;;;;68.38;48.42;;;15.10;54.40;;;;;;4990807;28;95297;-38
2022/04/08 05:06:46;;;;;;;68.95;48.42;;;15.20;54.40;;;;;;4991238;28;95689;-38
2022/04/08 05:09:12;;;;;;;68.78;48.63;;;15.20;54.40;;;;;;4986915;28;97891;-40
2022/04/08 05:11:37;;;;;;;69.25;48.85;;;15.10;54.30;;;;;;4985805;28;96816;-38
2022/04/08 05:14:03;;;;;;;69.63;48.53;;;15.10;54.30;;;;;;4987533;28;96252;-40
2022/04/08 05:16:29;;;;;;;68.72;48.40;;;15.20;54.40;;;;;;4994242;28;95041;-40
2022/04/08 05:18:55;;;;;;;68.43;48.58;;;15.10;54.40;;;;;;4991469;28;94716;-39
2022/04/08 05:21:21;;;;;;;69.82;48.47;;;15.10;54.40;;;;;;4996096;28;94826;-40
2022/04/08 05:23:47;;;;;;;69.43;48.45;;;15.10;54.40;;;;;;4994145;28;95364;-35
2022/04/08 05:26:15;;;;;;;68.70;48.30;;;15.10;54.40;;;;;;4996978;28;94994;-37
2022/04/08 05:28:41;;;;;;;68.55;48.25;;;15.10;54.40;;;;;;4993173;28;97891;-39
2022/04/08 05:31:06;;;;;;;68.93;48.65;;;15.10;54.30;;;;;;4997664;28;94707;-34
2022/04/08 05:33:32;;;;;;;69.68;48.60;;;15.10;54.30;;;;;;4988496;28;96314;-38
2022/04/08 05:35:58;;;;;;;69.03;48.72;;;15.10;54.40;;;;;;4997713;28;96566;-38
2022/04/08 05:38:23;;;;;;;69.28;48.55;;;15.10;54.30;;;;;;4994596;28;96317;-39
2022/04/08 05:40:49;;;;;;;68.45;48.55;;;15.10;54.30;;;;;;4997490;28;95695;-36
2022/04/08 05:43:16;;;;;;;68.45;48.70;;;15.10;54.30;;;;;;4993685;28;94602;-36
2022/04/08 05:45:42;;;;;;;70.25;48.55;;;15.10;54.30;;;;;;4996010;28;95477;-40
2022/04/08 05:48:08;;;;;;;68.40;48.38;;;15.10;54.40;;;;;;4994964;28;96059;-39
2022/04/08 05:50:34;;;;;;;68.40;48.45;;;15.10;54.40;;;;;;4998722;28;94131;-35
2022/04/08 05:53:00;;;;;;;68.57;48.40;;;15.10;54.30;;;;;;4998469;28;95043;-39
2022/04/08 05:55:26;;;;;;;68.63;48.45;;;15.10;54.30;;;;;;4991530;28;95939;-39
2022/04/08 05:57:56;;;;;;;68.70;48.55;;;15.10;54.40;;;;;;4997710;28;95973;-37
2022/04/08 06:00:23;;;;;;;69.38;48.33;;;15.10;54.40;;;;;;4993381;28;95302;-36
2022/04/08 06:02:49;;;;;;;68.63;48.50;;;15.10;54.30;;;;;;4992681;28;95928;-37
2022/04/08 06:05:18;;;;;;;68.40;48.35;;;15.10;54.40;;;;;;4992963;28;94964;-38
2022/04/08 06:07:48;;;;;;;69.60;48.38;;;15.10;54.40;;;;;;4994219;28;95040;-38
2022/04/08 06:10:18;;;;;;;69.25;48.85;;;15.10;54.40;;;;;;4996818;28;95354;-40
2022/04/08 06:12:50;;;;;;;68.45;48.30;;;15.10;54.30;;;;;;4992010;28;94739;-38
2022/04/08 06:15:16;;;;;;;68.78;48.25;;;15.10;54.40;;;;;;4992410;28;96915;-42
2022/04/08 06:17:42;;;;;;;69.35;48.45;;;15.10;54.40;;;;;;4998805;28;95344;-41
2022/04/08 06:20:09;;;;;;;68.68;48.35;;;15.10;54.40;;;;;;4991178;28;95168;-39
2022/04/08 06:22:39;;;;;;;69.68;49.00;;;15.10;54.40;;;;;;4993859;28;95921;-38
2022/04/08 06:25:09;;;;;;;68.90;48.40;;;15.10;54.40;;;;;;4996093;28;98787;-39
2022/04/08 06:27:35;;;;;;;69.53;48.60;;;15.10;54.40;;;;;;4994871;28;98600;-36
2022/04/08 06:30:02;;;;;;;68.45;48.78;;;15.10;54.40;;;;;;4990084;28;94763;-47
2022/04/08 06:32:27;;;;;;;69.15;48.67;;;15.10;54.40;;;;;;4997641;28;95518;-36
2022/04/08 06:34:53;;;;;;;68.82;48.65;;;15.10;54.30;;;;;;4986751;28;97192;-37
2022/04/08 06:37:18;;;;;;;70.05;48.80;;;15.10;54.30;;;;;;4992899;28;94947;-37
2022/04/08 06:39:45;;;;;;;69.22;48.70;;;15.10;54.30;;;;;;4990450;28;94514;-34
2022/04/08 06:42:11;;;;;;;69.30;48.95;;;15.10;54.30;;;;;;4989361;28;95926;-47
2022/04/08 06:44:37;;;;;;;69.05;48.55;;;15.10;54.30;;;;;;4986955;28;94694;-37
2022/04/08 06:47:02;;;;;;;68.90;48.67;;;15.10;54.20;;;;;;4990526;28;103310;-39
2022/04/08 06:49:28;;;;;;;68.78;48.55;;;15.10;54.30;;;;;;4983847;28;94830;-37
2022/04/08 06:51:58;;;;;;;69.10;48.72;;;15.10;54.20;;;;;;4997513;28;94877;-39
2022/04/08 06:54:28;;;;;;;69.68;48.97;;;15.10;54.20;;;;;;4987393;28;95586;-36
2022/04/08 06:56:54;;;;;;;68.53;48.75;;;15.20;54.30;;;;;;4995360;28;94599;-40
2022/04/08 06:59:20;;;;;;;70.43;48.90;;;15.20;54.20;;;;;;4995568;28;94982;-48
2022/04/08 07:01:45;;;;;;;70.70;49.05;;;15.10;54.10;;;;;;4997724;28;95505;-41
2022/04/08 07:04:11;;;;;;;70.85;48.85;;;15.20;54.20;;;;;;4993918;28;94955;-39
2022/04/08 07:06:36;;;;;;;69.65;48.72;;;15.10;54.10;;;;;;4992564;28;94989;-38
2022/04/08 07:09:02;;;;;;;69.38;48.75;;;15.20;54.20;;;;;;5000137;28;96576;-37
2022/04/08 07:11:28;;;;;;;69.93;48.80;;;15.10;54.00;;;;;;5002654;28;96296;-38
2022/04/08 07:13:54;;;;;;;69.38;48.95;;;15.20;54.20;;;;;;4995365;28;95374;-36
2022/04/08 07:16:20;;;;;;;70.03;49.05;;;15.20;54.10;;;;;;4989157;28;98025;-35
2022/04/08 07:18:46;;;;;;;71.18;48.83;;;15.20;54.10;;;;;;4989097;28;94988;-37
2022/04/08 07:21:12;;;;;;;69.97;48.72;;;15.20;54.10;;;;;;4990735;28;95435;-36
2022/04/08 07:23:37;;;;;;;70.18;49.05;;;15.20;54.10;;;;;;4988300;28;95382;-40
2022/04/08 07:26:04;;;;;;;70.40;48.90;;;15.20;54.00;;;;;;4991839;28;96391;-37
2022/04/08 07:28:29;;;;;;;70.68;48.92;;;15.20;54.00;;;;;;4999857;28;95040;-37
2022/04/08 07:30:55;;;;;;;71.50;49.25;;;15.20;54.00;;;;;;4986156;27;95878;-36
2022/04/08 07:33:21;;;;;;;69.47;48.97;;;15.20;54.00;;;;;;4983386;28;94673;-38
2022/04/08 07:35:46;;;;;;;70.90;49.03;;;15.20;54.00;;;;;;4983636;28;95862;-36
2022/04/08 07:38:12;;;;;;;70.43;49.20;;;15.20;54.00;;;;;;4987874;28;94580;-35
2022/04/08 07:40:38;;;;;;;70.13;49.05;;;15.20;54.00;;;;;;4987740;28;97576;-38
2022/04/08 07:43:04;;;;;;;69.80;48.90;;;15.20;54.00;;;;;;4995267;28;94985;-38
2022/04/08 07:45:30;;;;;;;71.05;49.00;;;15.20;54.00;;;;;;4980823;28;94612;-36
2022/04/08 07:47:58;;;;;;;70.65;49.35;;;15.20;54.00;;;;;;4994547;28;94721;-40
2022/04/08 07:50:25;;;;;;;72.45;49.13;;;15.20;54.00;;;;;;4991341;28;95670;-37
2022/04/08 07:52:51;;;;;;;71.10;49.17;;;15.20;53.90;;;;;;4988598;28;94453;-39
2022/04/08 07:55:20;;;;;;;70.90;49.05;;;15.20;54.00;;;;;;4988204;28;94509;-36
2022/04/08 07:57:50;;;;;;;69.47;48.88;;;15.30;54.00;;;;;;4990946;28;94697;-42
2022/04/08 08:00:21;;;;;;;69.53;48.83;;;15.20;54.00;;;;;;4988198;28;96158;-39
2022/04/08 08:02:48;;;;;;;72.33;49.20;;;15.30;54.10;;;;;;4991820;28;96489;-39
2022/04/08 08:05:14;;;;;;;70.07;48.78;;;15.30;54.00;;;;;;4991840;28;94669;-41
2022/04/08 08:07:54;;;;;;;70.82;48.83;;;15.20;54.00;;;;;;4994901;28;95146;-38
2022/04/08 08:10:23;;;;;;;69.82;48.78;;;15.20;54.00;;;;;;4988266;28;97262;-37
2022/04/08 08:12:50;;;;;;;71.70;49.33;;;15.30;54.00;;;;;;4990470;28;94672;-38
2022/04/08 08:15:18;;;;;;;72.30;49.47;;;15.30;54.00;;;;;;4991998;28;97413;-39
2022/04/08 08:17:44;;;;;;;72.38;49.45;;;15.30;54.00;;;;;;4994364;28;94323;-37
2022/04/08 08:20:12;;;;;;;71.35;49.25;;;15.30;54.00;;;;;;4989920;28;95231;-39
2022/04/08 08:22:38;;;;;;;71.15;49.35;;;15.20;54.00;;;;;;4985479;28;97826;-46
2022/04/08 08:25:06;;;;;;;71.47;49.10;;;15.30;54.00;;;;;;4990333;28;96183;-40
2022/04/08 08:27:44;;;;;;;69.65;48.85;;;15.30;54.00;;;;;;4983292;28;96749;-40
2022/04/08 08:30:13;;;;;;;71.45;49.05;;;15.30;54.00;;;;;;4987747;28;96298;-39
2022/04/08 08:32:40;;;;;;;70.00;48.92;;;15.30;53.90;;;;;;4987640;28;95491;-42
2022/04/08 08:35:08;;;;;;;69.78;48.80;;;15.30;54.00;;;;;;4988883;28;95031;-39
2022/04/08 08:37:34;;;;;;;71.25;49.05;;;15.30;53.90;;;;;;4987580;28;94976;-41
2022/04/08 08:40:00;;;;;;;70.43;49.08;;;15.30;53.90;;;;;;4981794;28;96814;-43
2022/04/08 08:42:27;;;;;;;70.15;49.05;;;15.30;53.90;;;;;;4984589;28;94437;-37
2022/04/08 08:44:53;;;;;;;69.88;48.97;;;15.30;53.90;;;;;;4997952;28;95238;-42
2022/04/08 08:47:20;;;;;;;70.78;49.15;;;15.30;53.90;;;;;;4988019;28;95043;-40
2022/04/08 08:49:49;;;;;;;70.28;49.13;;;15.30;53.90;;;;;;4987604;28;96228;-38
2022/04/08 08:52:21;;;;;;;71.25;49.47;;;15.30;54.00;;;;;;4985998;28;95568;-35
2022/04/08 08:54:47;;;;;;;70.85;48.80;;;15.30;54.00;;;;;;4994594;28;95079;-39
2022/04/08 08:57:20;;;;;;;71.65;49.42;;;15.30;53.90;;;;;;4985778;28;94778;-35
2022/04/08 08:59:47;;;;;;;71.38;48.97;;;15.30;54.00;;;;;;4996222;28;95382;-39
2022/04/08 09:02:18;;;;;;;71.15;49.00;;;15.30;54.00;;;;;;4992643;28;98385;-35
2022/04/08 09:04:44;;;;;;;;;;;15.30;54.00;;;;;;5000299;28;95060;-38
2022/04/08 09:07:22;;;;;;;69.72;48.75;;;15.20;53.90;;;;;;4993171;28;94200;-39
2022/04/08 09:09:58;;;;;;;70.38;48.90;;;15.30;54.10;;;;;;4996145;28;95284;-38
2022/04/08 09:12:26;;;;;;;70.13;49.10;;;15.30;53.90;;;;;;4995319;28;95266;-42
2022/04/08 09:14:58;;;;;;;71.72;49.03;;;15.30;53.90;;;;;;4997797;28;95934;-42
2022/04/08 09:17:25;;;;;;;70.32;48.97;;;15.30;53.90;;;;;;4996004;28;98414;-37
2022/04/08 09:19:54;;;;;;;71.32;49.13;;;15.30;53.90;;;;;;4999240;28;95039;-40
2022/04/08 09:22:21;;;;;;;71.28;49.00;;;15.30;54.00;;;;;;4992257;28;95166;-36
2022/04/08 09:24:48;;;;;;;70.38;49.22;;;15.30;53.90;;;;;;4997434;28;94551;-39
2022/04/08 09:27:14;;;;;;;71.68;49.40;;;15.30;53.90;;;;;;4989220;28;95047;-41
2022/04/08 09:29:44;;;;;;;70.55;49.10;;;15.30;54.00;;;;;;4995863;28;95925;-37
2022/04/08 09:32:12;;;;;;;69.10;48.85;;;15.30;53.80;;;;;;4989018;28;94976;-41
2022/04/08 09:34:39;;;;;;;70.05;48.95;;;15.30;53.90;;;;;;4996641;28;94963;-41
2022/04/08 09:37:12;;;;;;;69.68;49.00;;;15.30;53.90;;;;;;4991666;28;95659;-39
2022/04/08 09:39:55;;;;;;;70.82;49.08;;;15.30;53.90;;;;;;4986781;28;96291;-36
2022/04/08 09:42:21;;;;;;;71.97;49.15;;;15.30;53.90;;;;;;4985077;28;96437;-38
2022/04/08 09:44:47;;;;;;;71.25;49.17;;;15.30;53.90;;;;;;4993323;28;95687;-41
2022/04/08 09:47:13;;;;;;;70.35;49.42;;;15.30;53.90;;;;;;4991532;28;96678;-39
2022/04/08 09:49:39;;;;;;;70.25;49.42;;;15.40;53.90;;;;;;4994663;28;97637;-37
2022/04/08 09:52:07;;;;;;;71.25;49.55;;;15.30;53.90;;;;;;4990195;28;95056;-40
2022/04/08 09:54:33;;;;;;;70.47;49.15;;;15.30;53.90;;;;;;4992778;28;95384;-41
2022/04/08 09:57:00;;;;;;;71.35;49.40;;;15.30;53.90;;;;;;4993128;28;97018;-40
2022/04/08 09:59:29;;;;;;;71.57;49.33;;;15.30;53.90;;;;;;4991008;28;95974;-36
2022/04/08 10:01:58;;;;;;;71.53;49.22;;;15.40;53.90;;;;;;4992682;28;95066;-40
2022/04/08 10:04:25;;;;;;;71.03;49.38;;;15.40;53.90;;;;;;4992430;28;96158;-37
2022/04/08 10:06:51;;;;;;;70.82;49.13;;;15.40;53.90;;;;;;4998515;28;94670;-38
2022/04/08 10:09:19;;;;;;;71.22;49.17;;;15.40;53.90;;;;;;4993681;28;95749;-42
2022/04/08 10:12:23;;;;;;;70.43;49.25;;;15.40;53.90;;;;;;4994441;28;95149;-41
2022/04/08 10:14:54;;;;;;;70.05;48.88;;;15.40;53.90;;;;;;4992603;28;95620;-38
2022/04/08 10:17:19;;;;;;;70.20;49.13;;;15.40;53.90;;;;;;4995893;28;95195;-38
2022/04/08 10:19:45;;;;;;;70.75;49.00;;;15.40;53.90;;;;;;4996429;28;95445;-38
2022/04/08 10:22:19;;;;;;;70.55;49.13;;;15.40;53.90;;;;;;4993187;28;94965;-38
2022/04/08 10:24:56;;;;;;;71.88;49.15;;;15.40;53.90;;;;;;4997671;28;95265;-39
2022/04/08 10:27:38;;;;;;;71.38;49.10;;;15.40;53.90;;;;;;4994671;28;95223;-36
2022/04/08 10:30:21;;;;;;;70.35;48.78;;;15.40;53.80;;;;;;4994658;28;96170;-39
2022/04/08 10:32:57;;;;;;;69.38;48.58;;;15.40;53.80;;;;;;4994009;28;94876;-37
2022/04/08 10:35:23;;;;;;;70.50;49.05;;;15.40;54.50;;;;;;4997063;28;94624;-40
2022/04/08 10:37:59;;;;;;;70.72;48.85;;;15.50;54.00;;;;;;4993287;28;95006;-37
2022/04/08 10:40:33;;;;;;;71.47;49.22;;;15.50;54.00;;;;;;4996138;28;95242;-40
2022/04/08 10:43:01;;;;;;;70.47;49.15;;;15.50;53.80;;;;;;4987319;28;95236;-38
2022/04/08 10:45:29;;;;;;;70.55;48.97;;;15.50;53.90;;;;;;4996229;28;95095;-37
2022/04/08 10:47:59;;;;;;;70.78;49.22;;;15.50;54.00;;;;;;4992884;28;96808;-42
2022/04/08 10:50:33;;;;;;;74.20;49.15;;;15.50;53.90;;;;;;4993084;28;94919;-38
2022/04/08 10:53:10;;;;;;;70.85;49.17;;;15.50;54.00;;;;;;4996373;28;95210;-36
2022/04/08 10:55:53;;;;;;;70.80;49.13;;;15.60;54.00;;;;;;4995692;28;95764;-40
2022/04/08 10:58:32;;;;;;;70.63;49.15;;;15.60;54.10;;;;;;4998972;28;94845;-38
2022/04/08 11:00:58;;;;;;;72.03;49.40;;;15.60;54.10;;;;;;4994742;28;95147;-37
2022/04/08 11:03:28;;;;;;;71.65;49.10;;;15.60;54.10;;;;;;4992945;28;94900;-38
2022/04/08 11:05:55;;;;;;;71.25;49.63;;;15.60;54.20;;;;;;4992293;28;94784;-37
2022/04/08 11:08:25;;;;;;;72.72;49.17;;;15.60;54.20;;;;;;4995463;28;94958;-40
2022/04/08 11:10:58;;;;;;;74.32;49.33;;;15.60;54.10;;;;;;4990208;28;95150;-39
2022/04/08 11:13:24;;;;;;;71.30;49.15;;;15.60;54.30;;;;;;4990685;28;95698;-39
2022/04/08 11:15:50;;;;;;;71.07;49.30;;;15.60;54.20;;;;;;4992222;28;94831;-40
2022/04/08 11:18:15;;;;;;;71.10;49.25;;;15.60;54.10;;;;;;4995414;28;94856;-40
2022/04/08 11:20:47;;;;;;;71.80;49.40;;;15.60;54.20;;;;;;4992903;28;95981;-40
2022/04/08 11:23:13;;;;;;;72.18;49.25;;;15.60;54.20;;;;;;4991958;28;96947;-36
2022/04/08 11:25:38;;;;;;;71.43;48.92;;;15.60;54.20;;;;;;4992687;28;95036;-39
2022/04/08 11:28:10;;;;;;;70.53;49.05;;;15.60;54.10;;;;;;4989323;28;94614;-39
2022/04/08 11:30:40;;;;;;;70.30;48.85;;;15.50;54.10;;;;;;4991152;28;96586;-37
2022/04/08 11:33:17;;;;;;;70.60;48.97;;;15.50;54.10;;;;;;4996082;28;94647;-39
2022/04/08 11:35:44;;;;;;;70.65;49.15;;;15.50;54.00;;;;;;4993253;28;95127;-40
2022/04/08 11:38:17;;;;;;;70.97;49.10;;;15.60;54.10;;;;;;4997471;28;94276;-40
2022/04/08 11:40:43;;;;;;;70.93;48.95;;;15.60;54.00;;;;;;4993931;28;94883;-37
2022/04/08 11:43:12;;;;;;;74.05;49.25;;;15.60;53.90;;;;;;4992606;28;94809;-38
2022/04/08 11:45:37;;;;;;;70.90;48.95;;;15.60;53.90;;;;;;4993106;28;95930;-47
2022/04/08 11:48:06;;;;;;;70.63;49.00;;;15.60;53.90;;;;;;4998407;28;94749;-39
2022/04/08 11:50:35;;;;;;;71.63;48.95;;;15.60;53.90;;;;;;4993156;28;95020;-51
2022/04/08 11:53:01;;;;;;;70.38;49.22;;;15.60;53.80;;;;;;4992052;28;95180;-38
2022/04/08 11:55:28;;;;;;;71.05;49.05;;;15.60;53.80;;;;;;4987774;28;95079;-41
2022/04/08 11:57:55;;;;;;;70.70;49.05;;;15.60;53.90;;;;;;4992936;28;95310;-47
2022/04/08 12:00:29;;;;;;;70.78;49.03;;;15.60;53.80;;;;;;4989647;28;95098;-39
2022/04/08 12:02:58;;;;;;;71.65;49.25;;;15.60;53.70;;;;;;4989980;28;94113;-37
2022/04/08 12:05:25;;;;;;;73.10;49.47;;;15.70;53.70;;;;;;4989221;28;94745;-39
2022/04/08 12:07:55;;;;;;;71.20;49.33;;;15.70;53.50;;;;;;4994981;28;95071;-36
2022/04/08 12:10:22;;;;;;;71.85;49.42;;;15.70;53.50;;;;;;4985471;28;96403;-42
2022/04/08 12:12:49;;;;;;;71.35;49.20;;;15.70;53.50;;;;;;4990594;28;95881;-40
2022/04/08 12:15:15;;;;;;;71.80;49.33;;;15.70;53.50;;;;;;4990701;28;95154;-38
2022/04/08 12:17:43;;;;;;;71.55;49.28;;;15.70;53.40;;;;;;4995029;28;95081;-38
2022/04/08 12:20:17;;;;;;;72.22;49.50;;;15.70;53.50;;;;;;4989962;28;95222;-36
2022/04/08 12:22:50;;;;;;;71.47;49.38;;;15.70;53.30;;;;;;4995313;28;94690;-39
2022/04/08 12:25:18;;;;;;;72.85;49.58;;;15.70;53.40;;;;;;4986737;28;94956;-41
2022/04/08 12:27:50;;;;;;;71.85;49.55;;;15.70;53.30;;;;;;4994908;28;94253;-44
2022/04/08 12:30:16;;;;;;;72.13;49.40;;;15.80;53.30;;;;;;4988135;27;95277;-37